Time;durP1;ratioP1;P1;durP2;ratioP2;P2;SDS_P1;SDS_P2;PMS_P1;PMS_P2;Temp;Humidity;BMP_temperature;BMP_pressure;BME280_temperature;BME280_humidity;BME280_pressure;Samples;Min_cycle;Max_cycle;Signal;HPM_P1;HPM_P2
2022/03/24 00:02:20;;;;;;;41.50;20.10;;;;;;;-145.18;100.00;46779.56;5051881;28;20032;-64
2022/03/24 00:04:46;;;;;;;36.57;19.37;;;;;;;-145.18;100.00;46783.47;5070136;28;20057;-64
2022/03/24 00:07:12;;;;;;;38.90;19.50;;;;;;;-145.18;100.00;46838.16;5069956;28;20067;-64
2022/03/24 00:09:37;;;;;;;41.10;20.37;;;;;;;-145.18;100.00;46887.00;5070125;28;20072;-64
2022/03/24 00:12:03;;;;;;;44.93;22.90;;;;;;;-145.18;100.00;46799.09;5069942;28;20032;-64
2022/03/24 00:14:28;;;;;;;48.10;24.13;;;;;;;-145.18;100.00;46789.31;5069612;28;20040;-64
2022/03/24 00:16:54;;;;;;;40.73;20.47;;;;;;;-145.18;100.00;46791.28;5051826;28;20465;-64
2022/03/24 00:19:22;;;;;;;46.43;24.23;;;;;;;-145.18;100.00;47029.59;5070017;28;20036;-64
2022/03/24 00:21:48;;;;;;;39.93;20.17;;;;;;;-145.18;100.00;47328.50;5069750;28;20053;-64
2022/03/24 00:24:13;;;;;;;44.63;22.30;;;;;;;-145.18;100.00;47281.59;5069626;28;20277;-65
2022/03/24 00:26:39;;;;;;;47.00;22.67;;;;;;;-145.18;100.00;47328.50;5051773;28;20077;-64
2022/03/24 00:29:04;;;;;;;39.23;21.77;;;;;;;-145.18;100.00;46984.66;5070242;28;20062;-65
2022/03/24 00:31:30;;;;;;;37.87;21.17;;;;;;;-145.18;100.00;46830.34;5069162;28;20116;-64
2022/03/24 00:33:56;;;;;;;44.17;21.03;;;;;;;-145.18;100.00;46795.19;5052146;28;20078;-64
2022/03/24 00:36:22;;;;;;;43.87;21.90;;;;;;;-145.18;100.00;46804.94;5069312;28;20036;-64
2022/03/24 00:38:52;;;;;;;41.97;21.67;;;;;;;-145.18;100.00;46785.41;5070073;28;20076;-64
2022/03/24 00:41:21;;;;;;;40.87;23.00;;;;;;;-145.18;100.00;46765.88;5069472;28;20277;-65
2022/03/24 00:43:50;;;;;;;41.77;20.50;;;;;;;-145.18;100.00;46769.78;5069469;28;20347;-64
2022/03/24 00:46:20;;;;;;;40.77;20.97;;;;;;;-145.18;100.00;46767.84;5069435;28;20355;-64
2022/03/24 00:48:45;;;;;;;42.13;21.53;;;;;;;-145.18;100.00;46740.47;5069594;28;20257;-64
2022/03/24 00:51:11;;;;;;;45.17;22.13;;;;;;;-145.18;100.00;46746.34;5069361;28;20625;-64
2022/03/24 00:53:36;;;;;;;45.43;19.73;;;;;;;-145.18;100.00;46771.75;5069947;28;20036;-64
2022/03/24 00:56:02;;;;;;;42.70;22.43;;;;;;;-145.18;100.00;46752.19;5073505;28;20033;-64
2022/03/24 00:58:27;;;;;;;37.53;20.77;;;;;;;-145.18;100.00;46719.00;5072941;28;20733;-64
2022/03/24 01:00:54;;;;;;;43.53;21.90;;;;;;;-145.18;100.00;46701.41;5055663;28;20044;-64
2022/03/24 01:03:19;;;;;;;38.70;20.90;;;;;;;-145.18;100.00;46728.75;5072765;28;20108;-64
2022/03/24 01:05:45;;;;;;;47.47;22.33;;;;;;;-145.18;100.00;46697.50;5038801;28;20276;-64
2022/03/24 01:08:10;;;;;;;46.70;22.60;;;;;;;-145.18;100.00;46742.44;5055409;28;20366;-64
2022/03/24 01:10:37;;;;;;;37.07;18.80;;;;;;;-145.18;100.00;46769.78;5069955;28;20047;-64
2022/03/24 01:13:03;;;;;;;45.23;20.67;;;;;;;-145.18;100.00;46744.38;5053277;28;20033;-64
2022/03/24 01:15:30;;;;;;;42.33;20.67;;;;;;;-145.18;100.00;46760.00;5052850;28;20274;-63
2022/03/24 01:17:59;;;;;;;37.92;20.85;;;;;;;-145.18;100.00;46687.75;5070080;28;20116;-63
2022/03/24 01:20:25;;;;;;;48.15;21.67;;;;;;;-145.18;100.00;46640.88;5073104;28;20028;-64
2022/03/24 01:22:51;;;;;;;42.63;21.27;;;;;;;-145.18;100.00;46627.19;5072901;28;20039;-64
2022/03/24 01:25:16;;;;;;;46.30;23.10;;;;;;;-145.18;100.00;46619.38;5073162;28;20273;-63
2022/03/24 01:27:42;;;;;;;44.93;22.27;;;;;;;-145.18;100.00;46633.06;5072645;28;20048;-64
2022/03/24 01:30:09;;;;;;;48.77;22.60;;;;;;;-145.18;100.00;46691.66;5071708;28;20039;-64
2022/03/24 01:32:36;;;;;;;50.33;22.23;;;;;;;-145.18;100.00;46713.13;5054567;28;20861;-64
2022/03/24 01:35:07;;;;;;;44.40;21.30;;;;;;;-145.18;100.00;46720.94;5071815;28;20716;-64
2022/03/24 01:37:34;;;;;;;42.10;22.55;;;;;;;-145.18;100.00;46730.72;5071067;28;20272;-64
2022/03/24 01:39:59;;;;;;;45.03;23.00;;;;;;;-145.18;100.00;46722.91;5073155;28;20024;-64
2022/03/24 01:42:26;;;;;;;41.87;22.30;;;;;;;-145.18;100.00;46722.91;5072517;28;20269;-63
2022/03/24 01:44:55;;;;;;;44.05;22.30;;;;;;;-145.18;100.00;46752.19;5072616;28;20039;-64
2022/03/24 01:47:22;;;;;;;45.88;22.50;;;;;;;-145.18;100.00;46719.00;5072319;28;20028;-64
2022/03/24 01:49:48;;;;;;;44.13;20.90;;;;;;;-145.18;100.00;46724.84;5072791;28;20052;-64
2022/03/24 01:52:15;;;;;;;44.43;22.00;;;;;;;-145.18;100.00;46691.66;5072191;28;20025;-63
2022/03/24 01:54:44;;;;;;;41.17;21.02;;;;;;;-145.18;100.00;46689.69;5072526;28;20420;-63
2022/03/24 01:57:11;;;;;;;43.03;22.30;;;;;;;-145.18;100.00;46683.84;5072018;28;20177;-64
2022/03/24 01:59:37;;;;;;;37.35;19.73;;;;;;;-145.18;100.00;46658.44;5072127;28;20028;-64
2022/03/24 02:02:07;;;;;;;43.53;21.17;;;;;;;-145.18;100.00;46633.06;5575170;22;20063;-65
2022/03/24 02:04:35;;;;;;;37.10;19.88;;;;;;;-145.18;100.00;46607.66;5065081;28;20089;-68
2022/03/24 02:07:07;;;;;;;41.72;20.80;;;;;;;-145.18;100.00;46613.50;5069549;28;20124;-65
2022/03/24 02:09:36;;;;;;;42.00;20.85;;;;;;;-145.18;100.00;46615.47;5071994;28;20025;-65
2022/03/24 02:12:04;;;;;;;45.78;21.92;;;;;;;-145.18;100.00;46599.84;5071742;28;20067;-65
2022/03/24 02:14:29;;;;;;;40.60;20.73;;;;;;;-145.18;100.00;46623.28;5072735;28;20025;-65
2022/03/24 02:16:55;;;;;;;46.43;21.73;;;;;;;-145.18;100.00;46619.38;5071867;28;20044;-63
2022/03/24 02:19:23;;;;;;;50.07;22.30;;;;;;;-145.18;100.00;46615.47;5072154;28;20033;-65
2022/03/24 02:21:51;;;;;;;33.80;18.77;;;;;;;-145.18;100.00;46623.28;5071822;28;20029;-65
2022/03/24 02:24:18;;;;;;;43.65;21.50;;;;;;;-145.18;100.00;46619.38;5054132;28;20040;-65
2022/03/24 02:26:47;;;;;;;36.70;20.27;;;;;;;-145.18;100.00;46607.66;5071888;28;20104;-65
2022/03/24 02:29:15;;;;;;;37.30;21.20;;;;;;;-145.18;100.00;46592.03;5071747;28;20033;-65
2022/03/24 02:31:47;;;;;;;42.80;20.95;;;;;;;-145.18;100.00;46593.97;5071979;28;20036;-62
2022/03/24 02:36:59;;;;;;;36.97;20.25;;;;;;;-145.18;100.00;46621.31;5071493;28;20031;-65
2022/03/24 02:39:25;;;;;;;44.00;20.63;;;;;;;-145.18;100.00;46617.41;5071911;28;20488;-64
2022/03/24 02:41:53;;;;;;;44.47;22.37;;;;;;;-145.18;100.00;46609.59;5071239;28;20031;-62
2022/03/24 02:44:24;;;;;;;39.97;20.15;;;;;;;-145.18;100.00;46597.88;5071634;28;20050;-65
2022/03/24 02:46:51;;;;;;;42.10;21.10;;;;;;;-145.18;100.00;46603.75;5071001;28;20048;-62
2022/03/24 02:49:18;;;;;;;41.17;21.13;;;;;;;-145.18;100.00;46584.22;5071038;28;20063;-65
2022/03/24 02:51:44;;;;;;;38.80;18.65;;;;;;;-145.18;100.00;46590.06;5071586;28;20067;-64
2022/03/24 02:54:11;;;;;;;43.03;21.20;;;;;;;-145.18;100.00;46590.06;5053198;28;20071;-64
2022/03/24 02:56:37;;;;;;;43.28;21.50;;;;;;;-145.18;100.00;46578.34;5071517;28;20047;-64
2022/03/24 02:59:06;;;;;;;56.92;22.92;;;;;;;-145.18;100.00;46597.88;5070817;28;20033;-65
2022/03/24 03:01:33;;;;;;;47.08;22.90;;;;;;;-145.18;100.00;46586.16;5071536;28;20463;-65
2022/03/24 03:03:59;;;;;;;49.03;22.67;;;;;;;-145.18;100.00;46590.06;5070800;28;20497;-65
2022/03/24 03:06:24;;;;;;;44.75;21.55;;;;;;;-145.18;100.00;46588.13;5071517;28;20039;-65
2022/03/24 03:08:50;;;;;;;37.80;20.07;;;;;;;-145.18;100.00;46586.16;5070622;28;20032;-62
2022/03/24 03:11:16;;;;;;;48.87;22.30;;;;;;;-145.18;100.00;46592.03;5053425;28;20564;-62
2022/03/24 03:13:43;;;;;;;40.45;22.15;;;;;;;-145.18;100.00;46586.16;5070711;28;20592;-62
2022/03/24 03:16:09;;;;;;;46.72;22.20;;;;;;;-145.18;100.00;46627.19;5070808;28;20028;-62
2022/03/24 03:18:34;;;;;;;40.60;20.33;;;;;;;-145.18;100.00;46582.25;5070790;28;20036;-64
2022/03/24 03:20:59;;;;;;;48.87;21.63;;;;;;;-145.18;100.00;46586.16;5067781;28;20036;-65
2022/03/24 03:23:25;;;;;;;45.37;21.50;;;;;;;-145.18;100.00;46590.06;5050581;28;20024;-65
2022/03/24 03:25:51;;;;;;;45.70;22.90;;;;;;;-145.18;100.00;46574.44;5050829;28;20037;-65
2022/03/24 03:28:18;;;;;;;41.60;22.07;;;;;;;-145.18;100.00;46572.50;5050501;28;20112;-62
2022/03/24 03:30:44;;;;;;;42.40;22.20;;;;;;;-145.18;100.00;46625.22;5051046;28;20032;-65
2022/03/24 03:33:10;;;;;;;41.10;22.30;;;;;;;-145.18;100.00;46574.44;5050401;28;20389;-65
2022/03/24 03:35:36;;;;;;;41.88;21.58;;;;;;;-145.18;100.00;46576.41;5050335;28;20036;-65
2022/03/24 03:38:03;;;;;;;41.67;21.50;;;;;;;-145.18;100.00;46580.31;5050241;28;20107;-65
2022/03/24 03:40:28;;;;;;;42.90;22.17;;;;;;;-145.18;100.00;46582.25;5050672;28;20036;-65
2022/03/24 03:42:54;;;;;;;47.63;22.40;;;;;;;-145.18;100.00;46570.53;5050242;28;20098;-65
2022/03/24 03:45:19;;;;;;;45.03;21.77;;;;;;;-145.18;100.00;46570.53;5050507;28;20037;-65
2022/03/24 03:47:45;;;;;;;41.73;19.93;;;;;;;-145.18;100.00;46566.63;5050169;28;20170;-65
2022/03/24 03:50:10;;;;;;;44.67;21.03;;;;;;;-145.18;100.00;46572.50;5027101;28;20461;-62
2022/03/24 03:52:37;;;;;;;58.30;22.97;;;;;;;-145.18;100.00;46562.72;5090580;28;20068;-62
2022/03/24 03:55:03;;;;;;;48.92;21.45;;;;;;;-145.18;100.00;46552.97;5090705;28;20028;-65
2022/03/24 03:57:28;;;;;;;47.42;22.33;;;;;;;-145.18;100.00;46554.91;5090046;28;20142;-65
2022/03/24 03:59:54;;;;;;;42.53;21.77;;;;;;;-145.18;100.00;46552.97;5090435;28;20107;-62
2022/03/24 04:02:19;;;;;;;52.37;24.60;;;;;;;-145.18;100.00;46554.91;5090063;28;20423;-63
2022/03/24 04:04:45;;;;;;;46.13;20.83;;;;;;;-145.18;100.00;46552.97;5090903;28;20059;-62
2022/03/24 04:07:11;;;;;;;42.10;22.55;;;;;;;-145.18;100.00;46554.91;5090262;28;20050;-64
2022/03/24 04:09:36;;;;;;;46.53;20.97;;;;;;;-145.18;100.00;46552.97;5090398;28;20044;-65
2022/03/24 04:12:03;;;;;;;46.40;22.37;;;;;;;-145.18;100.00;46554.91;5090111;28;20031;-65
2022/03/24 04:14:28;;;;;;;46.22;22.58;;;;;;;-145.18;100.00;46558.81;5090460;28;20061;-65
2022/03/24 04:16:57;;;;;;;45.07;22.27;;;;;;;-145.18;100.00;46562.72;5090176;28;20137;-65
2022/03/24 04:19:24;;;;;;;49.70;23.60;;;;;;;-145.18;100.00;46556.88;5090095;28;20059;-65
2022/03/24 04:21:49;;;;;;;52.20;23.55;;;;;;;-145.18;100.00;46556.88;5090139;28;20040;-63
2022/03/24 04:24:14;;;;;;;47.47;22.97;;;;;;;-145.18;100.00;46556.88;5090103;28;20539;-65
2022/03/24 04:26:40;;;;;;;49.30;22.93;;;;;;;-145.18;100.00;46558.81;5090442;28;20036;-65
2022/03/24 04:29:05;;;;;;;52.23;23.53;;;;;;;-145.18;100.00;46564.69;5091207;28;20111;-62
2022/03/24 04:31:31;;;;;;;45.27;21.43;;;;;;;-145.18;100.00;46562.72;5094682;28;20107;-63
2022/03/24 04:33:57;;;;;;;46.77;23.47;;;;;;;-145.18;100.00;46568.59;5093766;28;20048;-63
2022/03/24 04:36:23;;;;;;;45.58;20.80;;;;;;;-145.18;100.00;46564.69;5094576;28;20028;-63
2022/03/24 04:38:48;;;;;;;46.23;20.70;;;;;;;-145.18;100.00;46572.50;5093864;28;20030;-63
2022/03/24 04:41:14;;;;;;;48.83;23.30;;;;;;;-145.18;100.00;46570.53;5094615;28;20024;-64
2022/03/24 04:43:39;;;;;;;51.97;23.23;;;;;;;-145.18;100.00;46568.59;5093986;28;20088;-63
2022/03/24 04:46:05;;;;;;;50.47;22.83;;;;;;;-145.18;100.00;46566.63;5094343;28;20024;-63
2022/03/24 04:48:36;;;;;;;51.10;25.27;;;;;;;-145.18;100.00;46558.81;5093761;28;20024;-63
2022/03/24 04:51:03;;;;;;;49.30;24.60;;;;;;;-145.18;100.00;46560.78;5094147;28;20036;-63
2022/03/24 04:53:29;;;;;;;39.53;19.27;;;;;;;-145.18;100.00;46568.59;5094061;28;20219;-63
2022/03/24 04:55:54;;;;;;;43.07;21.13;;;;;;;-145.18;100.00;46566.63;5093945;28;20162;-62
2022/03/24 04:58:20;;;;;;;56.60;23.47;;;;;;;-145.18;100.00;46552.97;5093638;28;20073;-63
2022/03/24 05:00:45;;;;;;;54.97;24.60;;;;;;;-145.18;100.00;46554.91;5093996;28;20494;-63
2022/03/24 05:03:11;;;;;;;56.87;27.07;;;;;;;-145.18;100.00;46611.56;5093257;28;20529;-63
2022/03/24 05:05:36;;;;;;;60.08;27.15;;;;;;;-145.18;100.00;46623.28;5093999;28;20508;-63
2022/03/24 05:08:03;;;;;;;61.47;28.57;;;;;;;-145.18;100.00;46656.50;5093373;28;20067;-63
2022/03/24 05:13:19;;;;;;;75.85;30.63;;;;;;;-145.18;100.00;46654.53;5061822;28;20063;-63
2022/03/24 05:15:44;;;;;;;65.97;29.53;;;;;;;-145.18;100.00;46664.31;5051705;28;20493;-63
2022/03/24 05:18:09;;;;;;;54.03;28.67;;;;;;;-145.18;100.00;46666.25;5071934;28;20029;-63
2022/03/24 05:20:35;;;;;;;65.73;27.40;;;;;;;-145.18;100.00;46664.31;5073036;28;20476;-63
2022/03/24 05:23:01;;;;;;;60.40;26.83;;;;;;;-145.18;100.00;46672.13;5068709;28;20032;-63
2022/03/24 05:25:26;;;;;;;63.30;29.53;;;;;;;-145.18;100.00;46672.13;5073354;28;20112;-63
2022/03/24 05:27:52;;;;;;;55.87;26.50;;;;;;;-145.18;100.00;46670.16;5054737;28;20052;-63
2022/03/24 05:30:17;;;;;;;51.30;24.60;;;;;;;-145.18;100.00;46674.06;5073590;28;20524;-63
2022/03/24 05:32:42;;;;;;;50.20;22.57;;;;;;;-145.18;100.00;46672.13;5072765;28;20559;-64
2022/03/24 05:35:09;;;;;;;68.80;30.63;;;;;;;-145.18;100.00;46672.13;5072886;28;20040;-65
2022/03/24 05:37:35;;;;;;;38.47;21.10;;;;;;;-145.18;100.00;46666.25;5071186;28;20512;-65
2022/03/24 05:40:00;;;;;;;43.67;23.13;;;;;;;-145.18;100.00;46660.41;5072068;28;20032;-65
2022/03/24 05:42:27;;;;;;;44.00;20.87;;;;;;;-145.18;100.00;46656.50;5071734;28;20392;-64
2022/03/24 05:44:53;;;;;;;45.80;22.83;;;;;;;-145.18;100.00;46625.22;5071557;28;20029;-64
2022/03/24 05:47:18;;;;;;;51.65;23.42;;;;;;;-145.18;100.00;46621.31;5050750;28;20510;-64
2022/03/24 05:49:44;;;;;;;63.03;30.20;;;;;;;-145.18;100.00;46633.06;5069435;28;20043;-65
2022/03/24 05:52:11;;;;;;;62.85;30.55;;;;;;;-145.18;100.00;46654.53;5071650;28;20033;-65
2022/03/24 05:54:36;;;;;;;75.35;34.25;;;;;;;-145.18;100.00;46633.06;5071834;28;20111;-63
2022/03/24 05:57:03;;;;;;;80.67;36.43;;;;;;;-145.18;100.00;46635.00;5071501;28;20104;-65
2022/03/24 05:59:28;;;;;;;70.78;31.27;;;;;;;-145.18;100.00;46640.88;5064718;28;20046;-63
2022/03/24 06:01:54;;;;;;;67.17;28.07;;;;;;;-145.18;100.00;46629.13;5050886;28;20036;-62
2022/03/24 06:04:21;;;;;;;72.53;32.53;;;;;;;-145.18;100.00;46629.13;5051153;28;20067;-65
2022/03/24 06:06:47;;;;;;;68.63;32.28;;;;;;;-145.18;100.00;46635.00;5051879;28;20021;-65
2022/03/24 06:09:13;;;;;;;60.17;30.07;;;;;;;-145.18;100.00;46627.19;5051940;28;20122;-65
2022/03/24 06:11:38;;;;;;;67.60;30.67;;;;;;;-145.18;100.00;46627.19;5042872;28;20143;-65
2022/03/24 06:14:08;;;;;;;66.83;31.30;;;;;;;-145.18;100.00;46640.88;5031795;28;20025;-65
2022/03/24 06:16:34;;;;;;;68.18;33.10;;;;;;;-145.18;100.00;46578.34;5032029;28;20498;-63
2022/03/24 06:19:00;;;;;;;64.60;32.70;;;;;;;-145.18;100.00;46562.72;5031993;28;20060;-65
2022/03/24 06:21:25;;;;;;;77.27;36.07;;;;;;;-145.18;100.00;46558.81;5032223;28;20113;-65
2022/03/24 06:23:50;;;;;;;68.37;34.90;;;;;;;-145.18;100.00;46568.59;5043702;28;20032;-65
2022/03/24 06:26:19;;;;;;;64.80;29.40;;;;;;;-145.18;100.00;46568.59;5051117;28;20025;-65
2022/03/24 06:28:44;;;;;;;65.22;31.27;;;;;;;-145.18;100.00;46564.69;5051776;28;20033;-65
2022/03/24 06:31:11;;;;;;;70.83;35.17;;;;;;;-145.18;100.00;46560.78;5051389;28;20056;-65
2022/03/24 06:33:37;;;;;;;82.72;39.65;;;;;;;-145.18;100.00;46554.91;5034443;28;20032;-65
2022/03/24 06:36:02;;;;;;;84.37;37.17;;;;;;;-145.18;100.00;46545.16;5031990;28;20029;-65
2022/03/24 06:38:27;;;;;;;72.20;34.73;;;;;;;-145.18;100.00;46539.28;5033514;28;20098;-65
2022/03/24 06:40:53;;;;;;;69.13;33.57;;;;;;;-145.18;100.00;46533.44;5051850;28;20777;-65
2022/03/24 06:43:19;;;;;;;69.47;34.37;;;;;;;-145.18;100.00;46531.47;5032733;28;20127;-65
2022/03/24 06:45:45;;;;;;;79.15;36.47;;;;;;;-145.18;100.00;46529.53;5051242;28;20044;-65
2022/03/24 06:48:10;;;;;;;78.77;35.33;;;;;;;-145.18;100.00;46533.44;5050107;28;20452;-65
2022/03/24 06:50:36;;;;;;;87.37;38.57;;;;;;;-145.18;100.00;46531.47;5051073;28;20044;-65
2022/03/24 06:53:02;;;;;;;76.50;35.73;;;;;;;-145.18;100.00;46525.63;5049758;28;20021;-65
2022/03/24 06:55:28;;;;;;;75.00;36.95;;;;;;;-145.18;100.00;46519.75;5049992;28;20025;-65
2022/03/24 06:57:54;;;;;;;72.93;35.03;;;;;;;-145.18;100.00;46515.84;5050129;28;20527;-64
2022/03/24 07:00:19;;;;;;;74.47;33.93;;;;;;;-145.18;100.00;46517.81;5051252;28;20037;-64
2022/03/24 07:02:46;;;;;;;69.77;35.07;;;;;;;-145.18;100.00;46511.94;5050784;28;20513;-64
2022/03/24 07:05:12;;;;;;;67.03;33.65;;;;;;;-145.18;100.00;46517.81;5050875;28;20029;-64
2022/03/24 07:07:39;;;;;;;69.07;34.08;;;;;;;-145.18;100.00;46513.91;5049622;28;20029;-63
2022/03/24 07:10:05;;;;;;;79.40;37.67;;;;;;;-145.18;100.00;46515.84;5050416;28;20033;-65
2022/03/24 07:12:31;;;;;;;86.70;41.13;;;;;;;-145.18;100.00;46513.91;5032758;28;20056;-65
2022/03/24 07:14:56;;;;;;;86.43;40.80;;;;;;;-145.18;100.00;46510.00;5049577;28;20404;-65
2022/03/24 07:17:22;;;;;;;81.97;40.10;;;;;;;-145.18;100.00;46517.81;5050707;28;20106;-63
2022/03/24 07:19:48;;;;;;;90.70;41.90;;;;;;;-145.18;100.00;46513.91;5050998;28;20048;-63
2022/03/24 07:22:13;;;;;;;92.37;45.20;;;;;;;-145.18;100.00;46519.75;5032190;28;20044;-63
2022/03/24 07:24:39;;;;;;;89.10;45.57;;;;;;;-145.18;100.00;46508.03;5050756;28;20032;-63
2022/03/24 07:27:06;;;;;;;92.17;47.47;;;;;;;-145.18;100.00;46513.91;5050375;28;20036;-63
2022/03/24 07:29:31;;;;;;;92.13;44.13;;;;;;;-145.18;100.00;46511.94;5050517;28;20328;-65
2022/03/24 07:31:59;;;;;;;92.67;44.50;;;;;;;-145.18;100.00;46515.84;5050288;28;20311;-63
2022/03/24 07:34:25;;;;;;;102.13;47.97;;;;;;;-145.18;100.00;46515.84;5050388;28;20127;-63
2022/03/24 07:36:51;;;;;;;96.00;46.97;;;;;;;-145.18;100.00;46517.81;5050487;28;20381;-63
2022/03/24 07:39:17;;;;;;;94.33;47.53;;;;;;;-145.18;100.00;46513.91;5050437;28;20388;-63
2022/03/24 07:41:42;;;;;;;90.40;44.80;;;;;;;-145.18;100.00;46513.91;5050464;28;20036;-63
2022/03/24 07:44:07;;;;;;;90.87;45.53;;;;;;;-145.18;100.00;46527.56;5032582;28;20515;-64
2022/03/24 07:46:33;;;;;;;78.73;43.50;;;;;;;-145.18;100.00;46533.44;5035293;28;20042;-63
2022/03/24 07:48:59;;;;;;;82.43;43.23;;;;;;;-145.18;100.00;46539.28;5030320;28;20052;-63
2022/03/24 07:51:24;;;;;;;85.57;43.07;;;;;;;-145.18;100.00;46541.25;5030471;28;20365;-63
2022/03/24 07:53:53;;;;;;;79.93;40.27;;;;;;;-145.18;100.00;46549.06;5030444;28;20121;-63
2022/03/24 07:56:22;;;;;;;71.23;39.17;;;;;;;-145.18;100.00;46568.59;5029594;28;20468;-63
2022/03/24 07:58:47;;;;;;;74.63;38.97;;;;;;;-145.18;100.00;46580.31;5030575;28;20696;-63
2022/03/24 08:01:14;;;;;;;68.83;38.83;;;;;;;-145.18;100.00;46629.13;5030376;28;20306;-63
2022/03/24 08:03:40;;;;;;;69.73;38.17;;;;;;;-145.18;100.00;46617.41;5029575;28;20025;-64
2022/03/24 08:06:05;;;;;;;79.87;40.37;;;;;;;-145.18;100.00;46621.31;5029978;28;20352;-64
2022/03/24 08:08:31;;;;;;;74.83;37.87;;;;;;;-145.18;100.00;46633.06;5030269;28;20041;-64
2022/03/24 08:10:57;;;;;;;65.47;37.97;;;;;;;-145.18;100.00;46629.13;5031834;28;20516;-64
2022/03/24 08:13:23;;;;;;;64.17;36.23;;;;;;;-145.18;100.00;46631.09;5049948;28;20036;-64
2022/03/24 08:15:50;;;;;;;60.53;36.70;;;;;;;-145.18;100.00;46621.31;5050324;28;20638;-64
2022/03/24 08:18:17;;;;;;;63.43;35.93;;;;;;;-145.18;100.00;46607.66;5049668;28;20274;-64
2022/03/24 08:20:44;;;;;;;68.23;36.93;;;;;;;-145.18;100.00;46633.06;5050284;28;20371;-64
2022/03/24 08:23:11;;;;;;;65.37;36.87;;;;;;;-145.18;100.00;46687.75;5031882;28;20297;-64
2022/03/24 08:25:41;;;;;;;66.97;35.47;;;;;;;-145.18;100.00;46650.63;5050298;28;20270;-63
2022/03/24 08:28:07;;;;;;;64.90;35.40;;;;;;;-145.18;100.00;46830.34;5031587;28;20289;-64
2022/03/24 08:30:33;;;;;;;58.87;35.20;;;;;;;-145.18;100.00;47185.88;5050244;28;20286;-64
2022/03/24 08:32:58;;;;;;;60.83;34.27;;;;;;;-145.18;100.00;46756.09;5049765;28;20277;-64
2022/03/24 08:35:24;;;;;;;58.10;35.73;;;;;;;-145.18;100.00;46877.22;5050003;28;20500;-64
2022/03/24 08:37:50;;;;;;;78.83;35.50;;;;;;;-145.18;100.00;47221.03;5049448;28;20075;-64
2022/03/24 08:40:15;;;;;;;57.67;33.30;;;;;;;-145.18;100.00;47324.59;5049733;28;20277;-64
2022/03/24 08:42:42;;;;;;;65.20;33.50;;;;;;;-145.18;100.00;47310.91;5049752;28;20056;-64
2022/03/24 08:45:10;;;;;;;58.73;34.50;;;;;;;-145.18;100.00;47308.97;5049776;28;20036;-64
2022/03/24 08:47:36;;;;;;;62.77;33.13;;;;;;;-145.18;100.00;47267.94;5049716;28;20284;-63
2022/03/24 08:50:04;;;;;;;57.30;34.73;;;;;;;-145.18;100.00;47264.03;5049483;28;20301;-64
2022/03/24 08:52:30;;;;;;;57.73;33.13;;;;;;;-145.18;100.00;47238.63;5049461;28;20352;-64
2022/03/24 08:54:56;;;;;;;51.00;32.87;;;;;;;-145.18;100.00;47250.34;5049870;28;20638;-64
2022/03/24 08:57:28;;;;;;;65.30;33.70;;;;;;;-145.18;100.00;47246.44;5049363;28;20040;-64
2022/03/24 09:00:00;;;;;;;67.20;35.30;;;;;;;-145.18;100.00;47213.22;5049769;28;20102;-64
2022/03/24 09:02:26;;;;;;;57.00;34.50;;;;;;;-145.18;100.00;47215.19;5049715;28;20644;-64
2022/03/24 09:04:51;;;;;;;52.00;31.27;;;;;;;-145.18;100.00;47199.56;5049546;28;20270;-64
2022/03/24 09:07:18;;;;;;;54.00;31.67;;;;;;;-145.18;100.00;47189.78;5031755;28;20120;-64
2022/03/24 09:09:43;;;;;;;50.47;31.47;;;;;;;-145.18;100.00;47187.84;5049513;28;20504;-64
2022/03/24 09:12:09;;;;;;;55.67;31.80;;;;;;;-145.18;100.00;47180.03;5036068;28;20352;-64
2022/03/24 09:14:39;;;;;;;49.40;31.57;;;;;;;-145.18;100.00;47187.84;5030395;28;20022;-64
2022/03/24 09:17:05;;;;;;;49.97;30.70;;;;;;;-145.18;100.00;47187.84;5032922;28;20057;-64
2022/03/24 09:19:31;;;;;;;45.63;28.07;;;;;;;-145.18;100.00;47183.94;5033321;28;20029;-64
2022/03/24 09:21:57;;;;;;;52.67;30.87;;;;;;;-145.18;100.00;47178.06;5033247;28;20099;-64
2022/03/24 09:24:23;;;;;;;50.70;30.80;;;;;;;-145.18;100.00;47160.47;5033456;28;20492;-64
2022/03/24 09:26:48;;;;;;;42.27;27.07;;;;;;;-145.18;100.00;47172.19;5032801;28;20030;-64
2022/03/24 09:29:14;;;;;;;41.97;23.97;;;;;;;-145.18;100.00;47137.03;5033014;28;20378;-64
2022/03/24 09:31:39;;;;;;;39.60;24.47;;;;;;;-145.18;100.00;47166.34;5032714;28;20490;-64
2022/03/24 09:34:05;;;;;;;35.83;24.40;;;;;;;-145.18;100.00;47158.53;5032964;28;20148;-64
2022/03/24 09:36:30;;;;;;;38.60;24.03;;;;;;;-145.18;100.00;47135.09;5033305;28;20033;-64
2022/03/24 09:38:56;;;;;;;34.27;23.37;;;;;;;-145.18;95.25;47140.94;5032916;28;20030;-64
2022/03/24 09:41:25;;;;;;;41.00;24.97;;;;;;;-145.18;96.35;47133.13;5033117;28;20456;-64
2022/03/24 09:43:51;;;;;;;40.33;24.30;;;;;;;-145.18;95.33;47123.38;5032668;28;20117;-64
2022/03/24 09:46:18;;;;;;;40.57;24.17;;;;;;;-145.18;88.88;47139.00;5032713;28;20109;-64
2022/03/24 09:48:44;;;;;;;36.73;24.30;;;;;;;-145.18;90.23;47125.31;5032491;28;20041;-64
2022/03/24 09:51:10;;;;;;;36.13;24.07;;;;;;;-145.18;92.32;47125.31;5032729;28;20043;-65
2022/03/24 09:53:39;;;;;;;44.57;25.50;;;;;;;-145.18;91.76;47125.31;5036110;28;20037;-64
2022/03/24 09:56:05;;;;;;;36.80;24.03;;;;;;;-145.18;85.76;47127.28;5052490;28;20064;-65
2022/03/24 09:58:30;;;;;;;40.73;24.53;;;;;;;-145.18;90.01;47125.31;5052188;28;20061;-64
2022/03/24 10:00:56;;;;;;;33.73;22.43;;;;;;;-145.18;82.81;47115.56;5052624;28;20095;-64
2022/03/24 10:03:22;;;;;;;34.23;21.23;;;;;;;-145.18;81.24;47129.22;5050325;28;20119;-64
2022/03/24 10:05:55;;;;;;;29.30;19.10;;;;;;;-145.18;74.40;47113.59;5032495;28;20048;-64
2022/03/24 10:08:20;;;;;;;34.63;20.73;;;;;;;-145.18;76.04;47105.78;5031500;28;20045;-64
2022/03/24 10:10:46;;;;;;;33.53;21.53;;;;;;;-145.18;72.93;47101.88;5033722;28;20046;-64
2022/03/24 10:13:11;;;;;;;32.13;21.77;;;;;;;-145.18;72.49;47101.88;5051989;28;20041;-64
2022/03/24 10:15:39;;;;;;;31.40;20.70;;;;;;;-145.18;71.48;47105.78;5052338;28;20469;-64
2022/03/24 10:18:05;;;;;;;36.83;22.13;;;;;;;-145.18;66.49;47086.25;5051656;28;20086;-64
2022/03/24 10:20:31;;;;;;;33.07;21.40;;;;;;;-145.18;69.33;47111.66;5052117;28;20036;-64
2022/03/24 10:23:05;;;;;;;35.77;22.33;;;;;;;-145.18;67.76;47094.06;5051892;28;20033;-64
2022/03/24 10:25:37;;;;;;;34.10;21.77;;;;;;;-145.18;68.25;47080.38;5052383;28;20041;-64
2022/03/24 10:28:15;;;;;;;32.47;20.63;;;;;;;-145.18;66.78;47074.53;5049590;28;20052;-64
2022/03/24 10:30:46;;;;;;;28.47;20.53;;;;;;;-145.18;68.05;47074.53;5034119;28;20037;-64
2022/03/24 10:33:38;;;;;;;29.57;20.30;;;;;;;-145.18;68.02;47094.06;5051062;28;20059;-64
2022/03/24 10:36:19;;;;;;;35.17;21.10;;;;;;;-145.18;68.69;47082.34;5051835;28;20416;-65
2022/03/24 10:38:48;;;;;;;36.00;22.60;;;;;;;-145.18;64.77;47088.19;5050634;28;20043;-64
2022/03/24 10:41:19;;;;;;;31.77;21.80;;;;;;;-145.18;65.07;47066.72;5051696;28;20044;-64
2022/03/24 10:43:46;;;;;;;32.17;21.33;;;;;;;-145.18;61.26;47062.81;5051607;28;20036;-64
2022/03/24 10:46:25;;;;;;;33.80;22.77;;;;;;;-145.18;60.05;47086.25;5051843;28;20025;-64
2022/03/24 10:48:51;;;;;;;33.27;22.27;;;;;;;-145.18;56.29;47074.53;5051312;28;20025;-64
2022/03/24 10:51:30;;;;;;;31.97;21.83;;;;;;;-145.18;59.77;47068.66;5051271;28;20052;-64
2022/03/24 10:54:17;;;;;;;35.37;20.93;;;;;;;-145.18;53.88;47064.75;5051194;28;20025;-64
2022/03/24 10:56:46;;;;;;;32.67;21.57;;;;;;;-145.18;54.94;47097.97;5050826;28;20172;-64
2022/03/24 10:59:12;;;;;;;30.77;19.70;;;;;;;-145.18;55.05;47080.38;5051033;28;20025;-64